createdAt,value
2023-05-16T00:00:58.675Z,8.68
2023-05-16T00:03:26.335Z,10.18
2023-05-16T00:05:53.558Z,6.50
2023-05-16T00:08:20.793Z,8.88
2023-05-16T00:10:48.143Z,7.05
2023-05-16T00:13:15.142Z,8.18
2023-05-16T00:15:44.324Z,10.07
2023-05-16T00:18:14.987Z,9.13
2023-05-16T00:20:42.539Z,7.97
2023-05-16T00:23:09.605Z,10.38
2023-05-16T00:25:37.320Z,9.13
2023-05-16T00:28:04.980Z,9.25
2023-05-16T00:30:32.018Z,10.07
2023-05-16T00:32:59.142Z,8.80
2023-05-16T00:35:27.334Z,9.48
2023-05-16T00:37:54.599Z,8.90
2023-05-16T00:40:21.653Z,9.55
2023-05-16T00:42:49.258Z,7.82
2023-05-16T00:45:16.529Z,11.32
2023-05-16T00:47:43.539Z,11.48
2023-05-16T00:50:10.985Z,11.25
2023-05-16T00:52:38.403Z,11.30
2023-05-16T00:55:06.294Z,15.25
2023-05-16T00:57:33.489Z,11.90
2023-05-16T01:00:00.782Z,10.48
2023-05-16T01:02:29.506Z,10.40
2023-05-16T01:04:56.953Z,11.30
2023-05-16T01:07:24.587Z,11.00
2023-05-16T01:09:51.837Z,12.57
2023-05-16T01:12:38.685Z,13.18
2023-05-16T01:15:09.874Z,10.25
2023-05-16T01:17:44.176Z,13.82
2023-05-16T01:20:30.205Z,10.45
2023-05-16T01:23:16.094Z,11.98
2023-05-16T01:26:12.085Z,11.75
2023-05-16T01:28:40.191Z,12.68
2023-05-16T01:31:07.327Z,11.77
2023-05-16T01:33:34.732Z,13.50
2023-05-16T01:36:21.534Z,10.27
2023-05-16T01:39:08.166Z,11.20
2023-05-16T01:41:43.924Z,9.05
2023-05-16T01:44:19.156Z,11.27
2023-05-16T01:46:48.709Z,13.68
2023-05-16T01:49:23.483Z,13.98
2023-05-16T01:52:05.210Z,17.42
2023-05-16T01:54:33.473Z,11.32
2023-05-16T01:57:02.549Z,10.68
2023-05-16T01:59:29.765Z,12.43
2023-05-16T02:01:59.886Z,13.20
2023-05-16T02:04:27.196Z,12.55
2023-05-16T02:06:54.300Z,13.10
2023-05-16T02:09:21.681Z,13.52
2023-05-16T02:11:49.080Z,13.38
2023-05-16T02:14:16.490Z,14.75
2023-05-16T02:16:43.778Z,13.48
2023-05-16T02:19:11.125Z,15.77
2023-05-16T02:21:38.624Z,13.10
2023-05-16T02:24:05.738Z,16.98
2023-05-16T02:26:32.816Z,19.20
2023-05-16T02:28:59.897Z,13.48
2023-05-16T02:31:31.714Z,15.55
2023-05-16T02:33:59.139Z,17.70
2023-05-16T02:36:26.598Z,16.83
2023-05-16T02:38:54.109Z,15.13
2023-05-16T02:41:22.502Z,19.33
2023-05-16T02:43:49.862Z,14.55
2023-05-16T02:46:29.070Z,21.08
2023-05-16T02:48:56.740Z,18.70
2023-05-16T02:51:26.523Z,19.33
2023-05-16T02:53:54.895Z,15.30
2023-05-16T02:56:22.021Z,17.40
2023-05-16T02:58:50.215Z,15.30
2023-05-16T03:01:17.929Z,17.42
2023-05-16T03:03:45.387Z,16.95
2023-05-16T03:06:12.873Z,13.77
2023-05-16T03:08:40.057Z,19.10
2023-05-16T03:11:07.477Z,17.13
2023-05-16T03:13:34.627Z,14.98
2023-05-16T03:16:02.355Z,16.60
2023-05-16T03:18:29.448Z,14.35
2023-05-16T03:20:57.614Z,14.40
2023-05-16T03:23:25.088Z,15.75
2023-05-16T03:25:52.123Z,15.45
2023-05-16T03:28:19.133Z,14.48
2023-05-16T03:30:46.867Z,15.95
2023-05-16T03:33:13.905Z,15.90
2023-05-16T03:35:41.659Z,12.20
2023-05-16T03:38:08.671Z,15.02
2023-05-16T03:40:36.203Z,13.98
2023-05-16T03:43:03.239Z,16.80
2023-05-16T03:45:31.502Z,15.32
2023-05-16T03:47:58.667Z,12.68
2023-05-16T03:50:25.914Z,16.55
2023-05-16T03:52:54.263Z,14.20
2023-05-16T03:55:21.694Z,11.45
2023-05-16T03:57:50.265Z,14.88
2023-05-16T04:00:18.168Z,14.25
2023-05-16T04:02:45.539Z,12.88
2023-05-16T04:05:14.192Z,13.05
2023-05-16T04:07:41.657Z,16.42
2023-05-16T04:10:10.009Z,13.85
2023-05-16T04:12:37.970Z,12.50
2023-05-16T04:15:06.993Z,17.50
2023-05-16T04:17:35.087Z,16.58
2023-05-16T04:20:04.774Z,13.60
2023-05-16T04:22:31.850Z,11.80
2023-05-16T04:24:58.877Z,10.13
2023-05-16T04:27:27.188Z,16.90
2023-05-16T04:29:54.393Z,18.35
2023-05-16T04:32:21.500Z,13.68
2023-05-16T04:34:50.207Z,11.15
2023-05-16T04:37:17.518Z,14.57
2023-05-16T04:39:44.609Z,16.88
2023-05-16T04:42:11.771Z,11.38
2023-05-16T04:44:38.987Z,13.73
2023-05-16T04:47:09.203Z,16.67
2023-05-16T04:49:36.401Z,15.55
2023-05-16T04:52:03.531Z,15.07
2023-05-16T04:54:30.693Z,13.10
2023-05-16T04:56:57.812Z,16.23
2023-05-16T04:59:25.383Z,14.40
2023-05-16T05:01:52.482Z,13.90
2023-05-16T05:04:19.583Z,17.80
2023-05-16T05:06:46.574Z,14.82
2023-05-16T05:09:13.996Z,16.40
2023-05-16T05:11:40.998Z,19.40
2023-05-16T05:14:07.970Z,14.77
2023-05-16T05:16:35.255Z,15.23
2023-05-16T05:19:02.966Z,13.77
2023-05-16T05:21:31.008Z,14.60
2023-05-16T05:23:58.206Z,18.45
2023-05-16T05:26:26.378Z,17.17
2023-05-16T05:29:04.505Z,13.73
2023-05-16T05:31:35.138Z,16.95
2023-05-16T05:34:03.701Z,16.38
2023-05-16T05:36:31.485Z,17.38
2023-05-16T05:38:58.513Z,16.13
2023-05-16T05:41:26.938Z,18.55
2023-05-16T05:43:54.559Z,16.10
2023-05-16T05:46:21.889Z,16.92
2023-05-16T05:48:49.548Z,15.20
2023-05-16T05:51:17.838Z,16.67
2023-05-16T05:53:45.289Z,14.40
2023-05-16T05:56:12.427Z,15.60
2023-05-16T05:58:39.716Z,17.38
2023-05-16T06:01:07.423Z,13.35
2023-05-16T06:03:34.539Z,17.83
2023-05-16T06:06:01.592Z,16.70
2023-05-16T06:08:28.873Z,20.20
2023-05-16T06:10:55.931Z,16.60
2023-05-16T06:13:22.999Z,14.27
2023-05-16T06:15:51.949Z,13.32
2023-05-16T06:18:19.025Z,18.33
2023-05-16T06:20:46.275Z,17.60
2023-05-16T06:23:13.509Z,14.00
2023-05-16T06:25:40.638Z,11.82
2023-05-16T06:28:07.706Z,12.52
2023-05-16T06:30:35.073Z,12.93
2023-05-16T06:33:02.203Z,12.57
2023-05-16T06:35:29.523Z,14.00
2023-05-16T06:37:56.724Z,10.77
2023-05-16T06:40:23.685Z,11.23
2023-05-16T06:42:50.763Z,12.82
2023-05-16T06:45:17.857Z,10.18
2023-05-16T06:47:44.918Z,12.63
2023-05-16T06:50:12.154Z,16.85
2023-05-16T06:52:39.380Z,11.30
2023-05-16T06:55:06.710Z,10.15
2023-05-16T06:57:33.746Z,16.17
2023-05-16T07:00:00.984Z,12.88
2023-05-16T07:02:28.291Z,10.45
2023-05-16T07:04:55.550Z,15.75
2023-05-16T07:07:22.575Z,12.65
2023-05-16T07:09:49.675Z,15.27
2023-05-16T07:12:17.047Z,11.38
2023-05-16T07:14:44.229Z,11.50
2023-05-16T07:17:11.842Z,10.20
2023-05-16T07:19:38.963Z,11.10
2023-05-16T07:22:06.094Z,9.85
2023-05-16T07:24:33.285Z,11.52
2023-05-16T07:27:00.390Z,10.93
2023-05-16T07:29:27.533Z,22.45
2023-05-16T07:31:54.831Z,8.35
2023-05-16T07:34:22.017Z,11.80
2023-05-16T07:36:49.179Z,9.80
2023-05-16T07:39:16.469Z,13.30
2023-05-16T07:41:43.530Z,10.63
2023-05-16T07:44:10.577Z,11.82
2023-05-16T07:46:38.208Z,11.43
2023-05-16T07:49:05.438Z,9.63
2023-05-16T07:51:32.872Z,10.18
2023-05-16T07:53:59.957Z,8.80
2023-05-16T07:56:27.025Z,7.80
2023-05-16T07:58:54.454Z,11.32
2023-05-16T08:01:21.710Z,12.90
2023-05-16T08:03:48.820Z,10.85
2023-05-16T08:06:16.237Z,9.15
2023-05-16T08:08:43.565Z,9.70
2023-05-16T08:11:11.513Z,11.73
2023-05-16T08:13:38.551Z,9.57
2023-05-16T08:16:06.185Z,11.48
2023-05-16T08:18:33.243Z,11.98
2023-05-16T08:21:00.448Z,9.80
2023-05-16T08:23:27.487Z,10.18
2023-05-16T08:25:54.971Z,8.95
2023-05-16T08:28:22.137Z,7.95
2023-05-16T08:30:49.232Z,8.93
2023-05-16T08:33:16.737Z,7.80
2023-05-16T08:35:44.389Z,8.75
2023-05-16T08:38:11.644Z,9.68
2023-05-16T08:40:40.433Z,8.65
2023-05-16T08:43:07.702Z,10.02
2023-05-16T08:45:35.163Z,10.10
2023-05-16T08:48:03.922Z,7.07
2023-05-16T08:50:32.300Z,7.57
2023-05-16T08:53:07.243Z,8.93
2023-05-16T08:55:35.949Z,7.80
2023-05-16T08:58:03.877Z,9.00
2023-05-16T09:00:31.857Z,8.48
2023-05-16T09:02:59.457Z,10.23
2023-05-16T09:05:28.326Z,9.75
2023-05-16T09:07:55.959Z,7.43
2023-05-16T09:10:23.041Z,9.15
2023-05-16T09:12:50.118Z,6.07
2023-05-16T09:15:19.099Z,11.10
2023-05-16T09:17:47.255Z,7.93
2023-05-16T09:20:15.958Z,7.88
2023-05-16T09:22:54.517Z,11.10
2023-05-16T09:25:30.796Z,8.50
2023-05-16T09:28:01.871Z,13.82
2023-05-16T09:30:31.925Z,9.13
2023-05-16T09:32:59.745Z,10.27
2023-05-16T09:35:43.288Z,8.65
2023-05-16T09:38:17.313Z,12.13
2023-05-16T09:40:45.340Z,12.03
2023-05-16T09:43:16.839Z,10.80
2023-05-16T09:45:48.819Z,12.75
2023-05-16T09:48:17.345Z,6.97
2023-05-16T09:50:52.453Z,8.00
2023-05-16T09:53:30.464Z,9.10
2023-05-16T09:56:08.148Z,8.45
2023-05-16T09:58:37.332Z,9.93
2023-05-16T10:01:05.915Z,7.93
2023-05-16T10:03:38.638Z,7.85
2023-05-16T10:06:07.034Z,6.13
2023-05-16T10:08:36.886Z,7.28
2023-05-16T10:11:07.365Z,9.50
2023-05-16T10:13:36.688Z,8.32
2023-05-16T10:16:10.172Z,15.48
2023-05-16T10:18:39.072Z,7.93
2023-05-16T10:21:12.133Z,5.60
2023-05-16T10:23:43.112Z,4.43
2023-05-16T10:26:13.690Z,3.22
2023-05-16T10:28:41.476Z,4.85
2023-05-16T10:31:10.686Z,4.18
2023-05-16T10:33:38.992Z,6.15
2023-05-16T10:36:07.474Z,7.57
2023-05-16T10:38:35.176Z,6.55
2023-05-16T10:41:02.796Z,6.97
2023-05-16T10:43:31.096Z,8.18
2023-05-16T10:46:07.873Z,8.10
2023-05-16T10:48:36.917Z,8.02
2023-05-16T10:51:24.480Z,11.32
2023-05-16T10:53:52.500Z,7.95
2023-05-16T10:56:27.007Z,5.72
2023-05-16T10:58:55.977Z,4.15
2023-05-16T11:01:36.565Z,6.45
2023-05-16T11:04:11.649Z,9.55
2023-05-16T11:06:41.803Z,5.00
2023-05-16T11:09:27.479Z,7.00
2023-05-16T11:12:03.623Z,5.78
2023-05-16T11:14:33.627Z,3.03
2023-05-16T11:17:37.048Z,4.03
2023-05-16T11:20:06.181Z,5.28
2023-05-16T11:22:34.553Z,5.57
2023-05-16T11:25:05.763Z,5.70
2023-05-16T11:27:46.925Z,7.80
2023-05-16T11:30:17.186Z,6.43
2023-05-16T11:32:46.156Z,6.40
2023-05-16T11:35:18.051Z,7.47
2023-05-16T11:37:47.248Z,9.05
2023-05-16T11:40:15.875Z,7.38
2023-05-16T11:42:48.175Z,5.60
2023-05-16T11:45:20.217Z,6.25
2023-05-16T11:47:49.099Z,8.15
2023-05-16T11:50:17.210Z,7.18
2023-05-16T11:52:47.097Z,7.13
2023-05-16T11:55:21.513Z,13.63
2023-05-16T11:57:58.186Z,5.82
2023-05-16T12:00:26.852Z,6.57
2023-05-16T12:03:01.506Z,6.28
2023-05-16T12:05:31.263Z,5.10
2023-05-16T12:07:59.966Z,3.28
2023-05-16T12:10:27.284Z,5.32
2023-05-16T12:12:54.996Z,6.72
2023-05-16T12:15:22.775Z,4.38
2023-05-16T12:17:50.991Z,3.35
2023-05-16T12:20:18.908Z,5.78
2023-05-16T12:22:46.922Z,6.95
2023-05-16T12:25:35.848Z,6.88
2023-05-16T12:28:04.511Z,7.03
2023-05-16T12:30:32.852Z,7.85
2023-05-16T12:33:03.502Z,10.48
2023-05-16T12:35:34.636Z,6.80
2023-05-16T12:38:05.900Z,7.65
2023-05-16T12:40:33.015Z,6.75
2023-05-16T12:43:00.067Z,5.63
2023-05-16T12:45:28.240Z,9.70
2023-05-16T12:47:58.102Z,6.60
2023-05-16T12:50:28.097Z,10.32
2023-05-16T12:52:59.698Z,6.55
2023-05-16T12:55:27.189Z,6.72
2023-05-16T12:57:57.188Z,9.73
2023-05-16T13:00:24.761Z,8.63
2023-05-16T13:02:52.436Z,10.32
2023-05-16T13:05:21.507Z,11.60
2023-05-16T13:07:48.598Z,7.78
2023-05-16T13:10:15.920Z,10.25
2023-05-16T13:12:43.016Z,10.85
2023-05-16T13:15:16.434Z,6.63
2023-05-16T13:17:44.627Z,9.02
2023-05-16T13:20:15.508Z,9.10
2023-05-16T13:22:43.517Z,7.13
2023-05-16T13:25:11.485Z,13.10
2023-05-16T13:27:38.563Z,10.23
2023-05-16T13:30:06.066Z,10.68
2023-05-16T13:32:33.295Z,8.48
2023-05-16T13:35:00.426Z,6.30
2023-05-16T13:37:27.545Z,8.80
2023-05-16T13:39:57.230Z,7.82
2023-05-16T13:42:24.482Z,7.30
2023-05-16T13:44:52.432Z,8.98
2023-05-16T13:47:20.109Z,6.85
2023-05-16T13:49:47.791Z,7.40
2023-05-16T13:52:15.074Z,4.95
2023-05-16T13:54:42.115Z,6.78
2023-05-16T13:57:09.175Z,5.28
2023-05-16T14:02:06.841Z,8.15
2023-05-16T14:04:33.932Z,8.63
2023-05-16T14:07:01.206Z,8.95
2023-05-16T14:09:28.305Z,7.90
2023-05-16T14:11:55.353Z,7.50
2023-05-16T14:14:22.427Z,7.50
2023-05-16T14:16:49.660Z,7.75
2023-05-16T14:19:19.208Z,9.43
2023-05-16T14:21:46.657Z,6.40
2023-05-16T14:24:14.038Z,6.85
2023-05-16T14:26:41.672Z,5.72
2023-05-16T14:29:08.801Z,6.47
2023-05-16T14:31:38.488Z,6.20
2023-05-16T14:34:06.009Z,9.13
2023-05-16T14:36:33.163Z,8.55
2023-05-16T14:39:00.682Z,11.75
2023-05-16T14:41:27.736Z,10.20
2023-05-16T14:43:55.551Z,9.65
2023-05-16T14:46:22.680Z,8.00
2023-05-16T14:48:49.826Z,8.05
2023-05-16T14:51:16.937Z,7.10
2023-05-16T14:53:46.118Z,6.55
2023-05-16T14:56:13.921Z,8.90
2023-05-16T14:58:41.298Z,7.90
2023-05-16T15:01:08.490Z,9.55
2023-05-16T15:03:53.770Z,12.25
2023-05-16T15:06:22.199Z,11.30
2023-05-16T15:08:49.326Z,6.90
2023-05-16T15:11:16.397Z,7.93
2023-05-16T15:13:43.506Z,10.43
2023-05-16T15:16:10.921Z,7.20
2023-05-16T15:18:38.164Z,7.22
2023-05-16T15:21:05.273Z,12.35
2023-05-16T15:23:32.332Z,11.13
2023-05-16T15:25:59.384Z,11.23
2023-05-16T15:28:26.439Z,11.65
2023-05-16T15:30:53.583Z,11.45
2023-05-16T15:33:20.658Z,10.02
2023-05-16T15:35:48.615Z,11.82
2023-05-16T15:38:15.739Z,9.35
2023-05-16T15:40:42.895Z,8.48
2023-05-16T15:43:09.960Z,9.75
2023-05-16T15:45:40.080Z,8.35
2023-05-16T15:48:10.852Z,8.98
2023-05-16T15:50:38.104Z,8.07
2023-05-16T15:53:05.199Z,6.43
2023-05-16T15:55:32.620Z,8.50
2023-05-16T15:57:59.904Z,7.30
2023-05-16T16:00:27.038Z,6.75
2023-05-16T16:02:54.283Z,8.68
2023-05-16T16:05:21.556Z,7.28
2023-05-16T16:07:48.684Z,10.60
2023-05-16T16:10:15.882Z,8.40
2023-05-16T16:12:43.042Z,7.05
2023-05-16T16:15:10.874Z,8.75
2023-05-16T16:17:38.163Z,4.82
2023-05-16T16:20:06.032Z,8.90
2023-05-16T16:22:33.196Z,8.02
2023-05-16T16:25:00.823Z,7.85
2023-05-16T16:27:28.105Z,8.68
2023-05-16T16:29:55.125Z,10.50
2023-05-16T16:32:22.184Z,7.47
2023-05-16T16:34:49.579Z,9.63
2023-05-16T16:37:16.784Z,8.07
2023-05-16T16:39:44.138Z,7.53
2023-05-16T16:42:11.698Z,11.43
2023-05-16T16:44:38.920Z,11.48
2023-05-16T16:47:06.314Z,13.82
2023-05-16T16:49:33.495Z,10.63
2023-05-16T16:52:00.605Z,9.95
2023-05-16T16:54:28.321Z,13.45
2023-05-16T16:56:56.526Z,9.63
2023-05-16T16:59:23.769Z,8.45
2023-05-16T17:01:50.979Z,9.57
2023-05-16T17:04:18.354Z,9.63
2023-05-16T17:06:46.552Z,9.35
2023-05-16T17:09:18.133Z,11.93
2023-05-16T17:11:46.894Z,13.57
2023-05-16T17:14:14.972Z,12.40
2023-05-16T17:16:42.415Z,12.15
2023-05-16T17:19:10.486Z,10.77
2023-05-16T17:21:40.759Z,9.38
2023-05-16T17:24:08.232Z,13.05
2023-05-16T17:26:36.298Z,10.73
2023-05-16T17:29:05.260Z,10.95
2023-05-16T17:31:32.653Z,11.93
2023-05-16T17:33:59.808Z,11.77
2023-05-16T17:36:26.939Z,15.35
2023-05-16T17:38:53.989Z,21.63
2023-05-16T17:41:22.301Z,13.75
2023-05-16T17:43:49.549Z,12.05
2023-05-16T17:46:16.694Z,12.30
2023-05-16T17:48:44.227Z,13.20
2023-05-16T17:51:11.629Z,9.75
2023-05-16T17:53:38.741Z,9.45
2023-05-16T17:56:05.844Z,12.93
2023-05-16T17:58:32.954Z,11.57
2023-05-16T18:01:00.581Z,11.23
2023-05-16T18:03:27.789Z,11.65
2023-05-16T18:05:55.193Z,11.63
2023-05-16T18:08:22.496Z,11.98
2023-05-16T18:10:52.546Z,11.20
2023-05-16T18:13:20.791Z,16.23
2023-05-16T18:15:47.940Z,10.27
2023-05-16T18:18:15.164Z,11.43
2023-05-16T18:20:43.073Z,10.23
2023-05-16T18:23:10.162Z,12.38
2023-05-16T18:25:37.354Z,10.00
2023-05-16T18:28:04.694Z,11.20
2023-05-16T18:30:31.797Z,9.70
2023-05-16T18:32:59.943Z,10.98
2023-05-16T18:35:28.657Z,10.13
2023-05-16T18:37:56.108Z,12.60
2023-05-16T18:40:23.355Z,14.25
2023-05-16T18:42:51.051Z,13.35
2023-05-16T18:45:18.161Z,12.68
2023-05-16T18:47:45.271Z,14.20
2023-05-16T18:50:12.611Z,11.25
2023-05-16T18:52:40.745Z,12.90
2023-05-16T18:55:08.268Z,13.70
2023-05-16T18:57:35.305Z,18.00
2023-05-16T19:00:02.439Z,15.27
2023-05-16T19:02:40.959Z,13.88
2023-05-16T19:05:09.661Z,16.33
2023-05-16T19:07:36.976Z,12.38
2023-05-16T19:10:04.523Z,11.60
2023-05-16T19:12:31.988Z,12.50
2023-05-16T19:14:59.145Z,11.75
2023-05-16T19:17:26.438Z,14.52
2023-05-16T19:19:53.632Z,13.02
2023-05-16T19:22:21.209Z,12.38
2023-05-16T19:24:48.359Z,11.60
2023-05-16T19:27:15.515Z,12.35
2023-05-16T19:29:42.615Z,17.00
2023-05-16T19:32:10.896Z,15.02
2023-05-16T19:34:38.065Z,12.35
2023-05-16T19:37:05.325Z,14.63
2023-05-16T19:39:32.423Z,10.93
2023-05-16T19:42:07.155Z,10.40
2023-05-16T19:44:35.125Z,12.82
2023-05-16T19:47:02.367Z,13.30
2023-05-16T19:49:31.883Z,12.80
2023-05-16T19:51:59.178Z,12.65
2023-05-16T19:54:26.436Z,14.45
2023-05-16T19:56:53.675Z,12.52
2023-05-16T19:59:22.597Z,10.30
2023-05-16T20:01:49.659Z,11.93
2023-05-16T20:04:16.918Z,14.60
2023-05-16T20:06:44.140Z,15.48
2023-05-16T20:09:11.494Z,13.27
2023-05-16T20:11:38.729Z,13.13
2023-05-16T20:14:06.056Z,13.50
2023-05-16T20:16:33.253Z,13.15
2023-05-16T20:19:00.403Z,11.15
2023-05-16T20:21:27.519Z,11.88
2023-05-16T20:23:54.584Z,13.93
2023-05-16T20:26:22.578Z,13.50
2023-05-16T20:28:49.668Z,14.43
2023-05-16T20:31:16.767Z,16.40
2023-05-16T20:33:43.953Z,14.57
2023-05-16T20:36:11.095Z,15.45
2023-05-16T20:38:39.048Z,10.27
2023-05-16T20:41:06.117Z,15.95
2023-05-16T20:43:33.213Z,12.73
2023-05-16T20:46:00.342Z,15.25
2023-05-16T20:48:27.470Z,15.20
2023-05-16T20:50:55.258Z,19.05
2023-05-16T20:53:22.476Z,14.38
2023-05-16T20:55:49.568Z,17.15
2023-05-16T20:58:16.731Z,14.52
2023-05-16T21:00:43.874Z,16.65
2023-05-16T21:03:12.650Z,11.52
2023-05-16T21:05:40.075Z,14.00
2023-05-16T21:08:07.323Z,16.67
2023-05-16T21:10:34.356Z,15.63
2023-05-16T21:13:01.447Z,13.65
2023-05-16T21:15:28.810Z,16.65
2023-05-16T21:17:56.233Z,18.17
2023-05-16T21:20:23.478Z,19.50
2023-05-16T21:22:50.590Z,17.58
2023-05-16T21:25:17.585Z,16.23
2023-05-16T21:27:44.623Z,17.92
2023-05-16T21:30:12.262Z,15.65
2023-05-16T21:32:39.309Z,15.25
2023-05-16T21:35:07.130Z,14.43
2023-05-16T21:37:34.224Z,15.50
2023-05-16T21:40:01.263Z,14.00
2023-05-16T21:42:28.673Z,16.98
2023-05-16T21:44:55.767Z,18.13
2023-05-16T21:47:23.328Z,17.73
2023-05-16T21:49:50.491Z,18.40
2023-05-16T21:52:17.566Z,17.13
2023-05-16T21:54:44.606Z,19.15
2023-05-16T21:57:11.665Z,16.75
2023-05-16T21:59:38.774Z,15.70
2023-05-16T22:02:05.861Z,17.52
2023-05-16T22:04:32.936Z,19.65
2023-05-16T22:06:59.978Z,20.15
2023-05-16T22:09:27.047Z,15.40
2023-05-16T22:11:54.232Z,19.27
2023-05-16T22:14:21.292Z,22.50
2023-05-16T22:16:48.433Z,21.77
2023-05-16T22:19:15.761Z,20.10
2023-05-16T22:21:42.813Z,19.48
2023-05-16T22:24:09.878Z,18.58
2023-05-16T22:26:36.927Z,18.63
2023-05-16T22:29:03.953Z,20.00
2023-05-16T22:31:31.232Z,15.45
2023-05-16T22:33:58.324Z,19.33
2023-05-16T22:36:25.475Z,17.63
2023-05-16T22:38:52.558Z,19.45
2023-05-16T22:41:19.584Z,21.75
2023-05-16T22:43:46.654Z,22.20
2023-05-16T22:46:15.404Z,16.77
2023-05-16T22:48:42.509Z,18.98
2023-05-16T22:51:09.603Z,18.88
2023-05-16T22:53:36.681Z,17.23
2023-05-16T22:56:04.058Z,19.35
2023-05-16T22:58:31.131Z,20.58
2023-05-16T23:00:58.325Z,17.17
2023-05-16T23:03:25.469Z,22.70
2023-05-16T23:05:52.561Z,26.25
2023-05-16T23:08:19.741Z,21.50
2023-05-16T23:10:47.014Z,20.90
2023-05-16T23:13:14.201Z,19.92
2023-05-16T23:15:41.235Z,22.92
2023-05-16T23:18:08.462Z,25.50
2023-05-16T23:20:35.554Z,19.40
2023-05-16T23:23:02.658Z,18.73
2023-05-16T23:25:29.916Z,19.13
2023-05-16T23:27:58.047Z,21.17
2023-05-16T23:30:25.177Z,23.45
2023-05-16T23:32:52.344Z,24.55
2023-05-16T23:35:19.605Z,18.42
2023-05-16T23:37:46.667Z,18.92
2023-05-16T23:40:13.758Z,24.10
2023-05-16T23:42:41.351Z,20.55
2023-05-16T23:45:09.005Z,17.60
2023-05-16T23:47:36.200Z,19.10
2023-05-16T23:50:04.238Z,19.83
2023-05-16T23:52:31.356Z,20.35
2023-05-16T23:54:58.359Z,18.92
2023-05-16T23:57:25.464Z,20.30
2023-05-16T23:59:52.617Z,21.00
